sensor_id;sensor_type;location;lat;lon;timestamp;P1;durP1;ratioP1;P2;durP2;ratioP2
71806;SDS011;59655;42.590;23.364;2022-08-21T00:02:25;19.52;;;8.20;;
71806;SDS011;59655;42.590;23.364;2022-08-21T00:04:52;20.48;;;8.68;;
71806;SDS011;59655;42.590;23.364;2022-08-21T00:07:19;22.20;;;9.75;;
71806;SDS011;59655;42.590;23.364;2022-08-21T00:09:45;23.55;;;9.05;;
71806;SDS011;59655;42.590;23.364;2022-08-21T00:12:11;20.77;;;8.40;;
71806;SDS011;59655;42.590;23.364;2022-08-21T00:14:36;26.85;;;9.55;;
71806;SDS011;59655;42.590;23.364;2022-08-21T00:17:02;19.52;;;8.30;;
71806;SDS011;59655;42.590;23.364;2022-08-21T00:19:29;20.27;;;8.35;;
71806;SDS011;59655;42.590;23.364;2022-08-21T00:21:56;18.38;;;7.50;;
71806;SDS011;59655;42.590;23.364;2022-08-21T00:24:22;20.00;;;7.40;;
71806;SDS011;59655;42.590;23.364;2022-08-21T00:26:48;22.17;;;8.82;;
71806;SDS011;59655;42.590;23.364;2022-08-21T00:29:14;18.15;;;7.57;;
71806;SDS011;59655;42.590;23.364;2022-08-21T00:31:40;18.65;;;8.02;;
71806;SDS011;59655;42.590;23.364;2022-08-21T00:34:07;17.60;;;7.70;;
71806;SDS011;59655;42.590;23.364;2022-08-21T00:36:33;20.98;;;8.73;;
71806;SDS011;59655;42.590;23.364;2022-08-21T00:38:59;17.67;;;8.15;;
71806;SDS011;59655;42.590;23.364;2022-08-21T00:41:25;20.77;;;8.40;;
71806;SDS011;59655;42.590;23.364;2022-08-21T00:43:51;18.80;;;6.93;;
71806;SDS011;59655;42.590;23.364;2022-08-21T00:46:17;18.88;;;7.45;;
71806;SDS011;59655;42.590;23.364;2022-08-21T00:48:43;21.75;;;8.60;;
71806;SDS011;59655;42.590;23.364;2022-08-21T00:51:23;25.35;;;8.13;;
71806;SDS011;59655;42.590;23.364;2022-08-21T00:53:54;23.70;;;8.20;;
71806;SDS011;59655;42.590;23.364;2022-08-21T00:56:22;17.83;;;8.13;;
71806;SDS011;59655;42.590;23.364;2022-08-21T00:58:49;19.85;;;7.63;;
71806;SDS011;59655;42.590;23.364;2022-08-21T01:01:16;23.83;;;7.93;;
71806;SDS011;59655;42.590;23.364;2022-08-21T01:03:42;22.60;;;7.78;;
71806;SDS011;59655;42.590;23.364;2022-08-21T01:06:07;18.50;;;7.38;;
71806;SDS011;59655;42.590;23.364;2022-08-21T01:08:34;22.85;;;7.22;;
71806;SDS011;59655;42.590;23.364;2022-08-21T01:11:00;17.27;;;6.78;;
71806;SDS011;59655;42.590;23.364;2022-08-21T01:13:26;20.13;;;6.47;;
71806;SDS011;59655;42.590;23.364;2022-08-21T01:15:55;15.00;;;5.80;;
71806;SDS011;59655;42.590;23.364;2022-08-21T01:18:24;14.25;;;5.60;;
71806;SDS011;59655;42.590;23.364;2022-08-21T01:23:36;17.85;;;5.72;;
71806;SDS011;59655;42.590;23.364;2022-08-21T01:26:03;14.10;;;5.28;;
71806;SDS011;59655;42.590;23.364;2022-08-21T01:28:31;17.38;;;5.65;;
71806;SDS011;59655;42.590;23.364;2022-08-21T01:30:59;25.50;;;7.72;;
71806;SDS011;59655;42.590;23.364;2022-08-21T01:33:27;16.50;;;7.18;;
71806;SDS011;59655;42.590;23.364;2022-08-21T01:35:53;21.90;;;8.25;;
71806;SDS011;59655;42.590;23.364;2022-08-21T01:38:18;20.67;;;8.48;;
71806;SDS011;59655;42.590;23.364;2022-08-21T01:40:44;18.40;;;8.52;;
71806;SDS011;59655;42.590;23.364;2022-08-21T01:43:09;23.27;;;8.27;;
71806;SDS011;59655;42.590;23.364;2022-08-21T01:45:34;17.50;;;7.50;;
71806;SDS011;59655;42.590;23.364;2022-08-21T01:48:00;17.02;;;7.60;;
71806;SDS011;59655;42.590;23.364;2022-08-21T01:50:25;17.95;;;8.38;;
71806;SDS011;59655;42.590;23.364;2022-08-21T01:52:51;21.38;;;7.72;;
71806;SDS011;59655;42.590;23.364;2022-08-21T01:55:17;21.58;;;8.32;;
71806;SDS011;59655;42.590;23.364;2022-08-21T01:57:44;19.33;;;7.78;;
71806;SDS011;59655;42.590;23.364;2022-08-21T02:00:10;20.15;;;7.97;;
71806;SDS011;59655;42.590;23.364;2022-08-21T02:02:38;20.77;;;7.53;;
71806;SDS011;59655;42.590;23.364;2022-08-21T02:05:05;24.48;;;8.18;;
71806;SDS011;59655;42.590;23.364;2022-08-21T02:07:36;23.15;;;8.95;;
71806;SDS011;59655;42.590;23.364;2022-08-21T02:10:03;18.13;;;8.40;;
71806;SDS011;59655;42.590;23.364;2022-08-21T02:14:56;23.67;;;7.60;;
71806;SDS011;59655;42.590;23.364;2022-08-21T02:17:21;22.65;;;7.90;;
71806;SDS011;59655;42.590;23.364;2022-08-21T02:19:47;18.83;;;8.25;;
71806;SDS011;59655;42.590;23.364;2022-08-21T02:22:12;21.67;;;8.88;;
71806;SDS011;59655;42.590;23.364;2022-08-21T02:24:38;21.23;;;7.50;;
71806;SDS011;59655;42.590;23.364;2022-08-21T02:27:04;24.15;;;8.95;;
71806;SDS011;59655;42.590;23.364;2022-08-21T02:29:29;23.80;;;8.77;;
71806;SDS011;59655;42.590;23.364;2022-08-21T02:31:55;24.55;;;8.85;;
71806;SDS011;59655;42.590;23.364;2022-08-21T02:34:20;19.15;;;8.68;;
71806;SDS011;59655;42.590;23.364;2022-08-21T02:36:46;20.30;;;8.23;;
71806;SDS011;59655;42.590;23.364;2022-08-21T02:39:11;22.10;;;8.63;;
71806;SDS011;59655;42.590;23.364;2022-08-21T02:41:37;21.20;;;7.72;;
71806;SDS011;59655;42.590;23.364;2022-08-21T02:44:02;22.83;;;7.85;;
71806;SDS011;59655;42.590;23.364;2022-08-21T02:46:28;23.23;;;8.10;;
71806;SDS011;59655;42.590;23.364;2022-08-21T02:48:53;26.05;;;8.75;;
71806;SDS011;59655;42.590;23.364;2022-08-21T02:51:19;25.38;;;7.85;;
71806;SDS011;59655;42.590;23.364;2022-08-21T02:53:45;15.10;;;6.43;;
71806;SDS011;59655;42.590;23.364;2022-08-21T02:56:13;19.70;;;6.88;;
71806;SDS011;59655;42.590;23.364;2022-08-21T02:58:43;22.63;;;7.30;;
71806;SDS011;59655;42.590;23.364;2022-08-21T03:01:11;14.50;;;6.05;;
71806;SDS011;59655;42.590;23.364;2022-08-21T03:03:38;19.52;;;7.20;;
71806;SDS011;59655;42.590;23.364;2022-08-21T03:06:06;20.20;;;7.50;;
71806;SDS011;59655;42.590;23.364;2022-08-21T03:08:33;19.65;;;7.07;;
71806;SDS011;59655;42.590;23.364;2022-08-21T03:10:59;17.73;;;7.55;;
71806;SDS011;59655;42.590;23.364;2022-08-21T03:13:26;19.65;;;7.32;;
71806;SDS011;59655;42.590;23.364;2022-08-21T03:15:52;15.70;;;7.00;;
71806;SDS011;59655;42.590;23.364;2022-08-21T03:18:18;14.90;;;6.38;;
71806;SDS011;59655;42.590;23.364;2022-08-21T03:20:44;15.52;;;6.95;;
71806;SDS011;59655;42.590;23.364;2022-08-21T03:23:10;19.95;;;7.18;;
71806;SDS011;59655;42.590;23.364;2022-08-21T03:25:37;19.00;;;6.40;;
71806;SDS011;59655;42.590;23.364;2022-08-21T03:28:04;16.38;;;5.55;;
71806;SDS011;59655;42.590;23.364;2022-08-21T03:30:31;10.65;;;4.70;;
71806;SDS011;59655;42.590;23.364;2022-08-21T03:33:00;14.13;;;4.15;;
71806;SDS011;59655;42.590;23.364;2022-08-21T03:35:26;12.13;;;4.45;;
71806;SDS011;59655;42.590;23.364;2022-08-21T03:37:52;11.93;;;4.75;;
71806;SDS011;59655;42.590;23.364;2022-08-21T03:40:19;15.27;;;4.70;;
71806;SDS011;59655;42.590;23.364;2022-08-21T03:42:45;18.90;;;4.50;;
71806;SDS011;59655;42.590;23.364;2022-08-21T03:45:12;17.58;;;4.38;;
71806;SDS011;59655;42.590;23.364;2022-08-21T03:47:49;12.90;;;4.55;;
71806;SDS011;59655;42.590;23.364;2022-08-21T03:50:26;16.90;;;4.90;;
71806;SDS011;59655;42.590;23.364;2022-08-21T03:52:52;13.88;;;4.75;;
71806;SDS011;59655;42.590;23.364;2022-08-21T03:55:18;9.82;;;4.93;;
71806;SDS011;59655;42.590;23.364;2022-08-21T03:57:43;14.05;;;4.88;;
71806;SDS011;59655;42.590;23.364;2022-08-21T04:00:09;13.52;;;5.22;;
71806;SDS011;59655;42.590;23.364;2022-08-21T04:02:37;13.63;;;4.93;;
71806;SDS011;59655;42.590;23.364;2022-08-21T04:05:03;16.02;;;6.65;;
71806;SDS011;59655;42.590;23.364;2022-08-21T04:07:29;11.80;;;5.15;;
71806;SDS011;59655;42.590;23.364;2022-08-21T04:09:55;17.48;;;5.57;;
71806;SDS011;59655;42.590;23.364;2022-08-21T04:12:20;14.30;;;5.30;;
71806;SDS011;59655;42.590;23.364;2022-08-21T04:14:46;12.50;;;4.47;;
71806;SDS011;59655;42.590;23.364;2022-08-21T04:17:11;13.32;;;4.35;;
71806;SDS011;59655;42.590;23.364;2022-08-21T04:19:36;11.48;;;5.05;;
71806;SDS011;59655;42.590;23.364;2022-08-21T04:22:02;20.83;;;5.05;;
71806;SDS011;59655;42.590;23.364;2022-08-21T04:24:27;14.95;;;4.63;;
71806;SDS011;59655;42.590;23.364;2022-08-21T04:26:52;23.42;;;5.65;;
71806;SDS011;59655;42.590;23.364;2022-08-21T04:29:18;15.13;;;4.32;;
71806;SDS011;59655;42.590;23.364;2022-08-21T04:31:44;15.55;;;4.15;;
71806;SDS011;59655;42.590;23.364;2022-08-21T04:34:10;17.17;;;4.82;;
71806;SDS011;59655;42.590;23.364;2022-08-21T04:36:35;13.18;;;4.55;;
71806;SDS011;59655;42.590;23.364;2022-08-21T04:39:01;14.18;;;4.55;;
71806;SDS011;59655;42.590;23.364;2022-08-21T04:41:27;12.82;;;4.53;;
71806;SDS011;59655;42.590;23.364;2022-08-21T04:43:53;22.85;;;7.72;;
71806;SDS011;59655;42.590;23.364;2022-08-21T04:46:20;21.95;;;5.43;;
71806;SDS011;59655;42.590;23.364;2022-08-21T04:48:45;13.35;;;4.40;;
71806;SDS011;59655;42.590;23.364;2022-08-21T04:53:40;15.57;;;4.70;;
71806;SDS011;59655;42.590;23.364;2022-08-21T04:56:12;9.90;;;3.90;;
71806;SDS011;59655;42.590;23.364;2022-08-21T04:58:46;13.95;;;4.28;;
71806;SDS011;59655;42.590;23.364;2022-08-21T05:03:42;13.93;;;4.65;;
71806;SDS011;59655;42.590;23.364;2022-08-21T05:06:09;12.43;;;4.25;;
71806;SDS011;59655;42.590;23.364;2022-08-21T05:08:37;19.00;;;4.53;;
71806;SDS011;59655;42.590;23.364;2022-08-21T05:11:04;15.23;;;4.60;;
71806;SDS011;59655;42.590;23.364;2022-08-21T05:13:30;14.43;;;5.00;;
71806;SDS011;59655;42.590;23.364;2022-08-21T05:15:56;15.32;;;5.18;;
71806;SDS011;59655;42.590;23.364;2022-08-21T05:18:22;10.13;;;4.53;;
71806;SDS011;59655;42.590;23.364;2022-08-21T05:20:47;20.15;;;4.47;;
71806;SDS011;59655;42.590;23.364;2022-08-21T05:23:13;13.15;;;4.63;;
71806;SDS011;59655;42.590;23.364;2022-08-21T05:25:40;14.48;;;4.20;;
71806;SDS011;59655;42.590;23.364;2022-08-21T05:28:06;14.98;;;4.60;;
71806;SDS011;59655;42.590;23.364;2022-08-21T05:30:32;14.52;;;4.70;;
71806;SDS011;59655;42.590;23.364;2022-08-21T05:32:58;16.63;;;4.97;;
71806;SDS011;59655;42.590;23.364;2022-08-21T05:35:25;15.50;;;4.65;;
71806;SDS011;59655;42.590;23.364;2022-08-21T05:37:51;20.48;;;5.57;;
71806;SDS011;59655;42.590;23.364;2022-08-21T05:40:16;15.40;;;5.28;;
71806;SDS011;59655;42.590;23.364;2022-08-21T05:42:43;13.20;;;5.65;;
71806;SDS011;59655;42.590;23.364;2022-08-21T05:45:10;11.23;;;5.25;;
71806;SDS011;59655;42.590;23.364;2022-08-21T05:47:36;16.70;;;5.30;;
71806;SDS011;59655;42.590;23.364;2022-08-21T05:50:02;15.35;;;5.53;;
71806;SDS011;59655;42.590;23.364;2022-08-21T05:52:28;20.45;;;5.55;;
71806;SDS011;59655;42.590;23.364;2022-08-21T05:54:54;21.98;;;6.05;;
71806;SDS011;59655;42.590;23.364;2022-08-21T05:57:20;15.55;;;5.45;;
71806;SDS011;59655;42.590;23.364;2022-08-21T05:59:46;15.68;;;4.97;;
71806;SDS011;59655;42.590;23.364;2022-08-21T06:02:11;15.05;;;4.82;;
71806;SDS011;59655;42.590;23.364;2022-08-21T06:04:39;17.52;;;5.93;;
71806;SDS011;59655;42.590;23.364;2022-08-21T06:07:05;27.13;;;7.10;;
71806;SDS011;59655;42.590;23.364;2022-08-21T06:09:31;20.85;;;6.32;;
71806;SDS011;59655;42.590;23.364;2022-08-21T06:11:57;31.42;;;8.40;;
71806;SDS011;59655;42.590;23.364;2022-08-21T06:14:23;20.05;;;7.68;;
71806;SDS011;59655;42.590;23.364;2022-08-21T06:16:48;20.20;;;6.45;;
71806;SDS011;59655;42.590;23.364;2022-08-21T06:19:14;18.60;;;7.15;;
71806;SDS011;59655;42.590;23.364;2022-08-21T06:21:39;20.75;;;7.32;;
71806;SDS011;59655;42.590;23.364;2022-08-21T06:24:04;24.02;;;6.40;;
71806;SDS011;59655;42.590;23.364;2022-08-21T06:26:31;16.95;;;6.30;;
71806;SDS011;59655;42.590;23.364;2022-08-21T06:28:57;17.58;;;6.55;;
71806;SDS011;59655;42.590;23.364;2022-08-21T06:31:23;17.95;;;7.45;;
71806;SDS011;59655;42.590;23.364;2022-08-21T06:33:50;20.75;;;7.05;;
71806;SDS011;59655;42.590;23.364;2022-08-21T06:36:16;22.65;;;7.07;;
71806;SDS011;59655;42.590;23.364;2022-08-21T06:38:42;13.25;;;6.80;;
71806;SDS011;59655;42.590;23.364;2022-08-21T06:41:07;17.05;;;7.13;;
71806;SDS011;59655;42.590;23.364;2022-08-21T06:43:33;18.58;;;6.50;;
71806;SDS011;59655;42.590;23.364;2022-08-21T06:45:58;19.90;;;7.10;;
71806;SDS011;59655;42.590;23.364;2022-08-21T06:48:23;21.20;;;7.65;;
71806;SDS011;59655;42.590;23.364;2022-08-21T06:50:49;19.88;;;7.82;;
71806;SDS011;59655;42.590;23.364;2022-08-21T06:53:16;16.58;;;7.03;;
71806;SDS011;59655;42.590;23.364;2022-08-21T06:55:43;18.13;;;8.02;;
71806;SDS011;59655;42.590;23.364;2022-08-21T06:58:09;26.48;;;9.52;;
71806;SDS011;59655;42.590;23.364;2022-08-21T07:00:35;20.58;;;8.57;;
71806;SDS011;59655;42.590;23.364;2022-08-21T07:03:04;18.40;;;8.35;;
71806;SDS011;59655;42.590;23.364;2022-08-21T07:05:35;27.33;;;8.65;;
71806;SDS011;59655;42.590;23.364;2022-08-21T07:08:00;21.52;;;8.55;;
71806;SDS011;59655;42.590;23.364;2022-08-21T07:10:26;18.48;;;8.70;;
71806;SDS011;59655;42.590;23.364;2022-08-21T07:12:52;32.47;;;8.90;;
71806;SDS011;59655;42.590;23.364;2022-08-21T07:15:18;26.05;;;9.55;;
71806;SDS011;59655;42.590;23.364;2022-08-21T07:17:44;21.40;;;9.80;;
71806;SDS011;59655;42.590;23.364;2022-08-21T07:20:09;21.48;;;8.18;;
71806;SDS011;59655;42.590;23.364;2022-08-21T07:22:35;21.40;;;8.05;;
71806;SDS011;59655;42.590;23.364;2022-08-21T07:25:01;20.73;;;8.75;;
71806;SDS011;59655;42.590;23.364;2022-08-21T07:27:26;19.60;;;8.70;;
71806;SDS011;59655;42.590;23.364;2022-08-21T07:29:52;22.27;;;9.45;;
71806;SDS011;59655;42.590;23.364;2022-08-21T07:32:17;24.95;;;9.07;;
71806;SDS011;59655;42.590;23.364;2022-08-21T07:34:43;20.45;;;7.75;;
71806;SDS011;59655;42.590;23.364;2022-08-21T07:37:08;22.20;;;8.27;;
71806;SDS011;59655;42.590;23.364;2022-08-21T07:39:34;19.60;;;7.97;;
71806;SDS011;59655;42.590;23.364;2022-08-21T07:41:59;26.38;;;7.78;;
71806;SDS011;59655;42.590;23.364;2022-08-21T07:44:24;22.90;;;8.00;;
71806;SDS011;59655;42.590;23.364;2022-08-21T07:46:50;24.02;;;9.18;;
71806;SDS011;59655;42.590;23.364;2022-08-21T07:49:15;23.13;;;9.48;;
71806;SDS011;59655;42.590;23.364;2022-08-21T07:51:40;28.55;;;8.70;;
71806;SDS011;59655;42.590;23.364;2022-08-21T07:54:06;28.90;;;9.27;;
71806;SDS011;59655;42.590;23.364;2022-08-21T07:56:33;21.40;;;8.65;;
71806;SDS011;59655;42.590;23.364;2022-08-21T07:58:59;23.48;;;7.97;;
71806;SDS011;59655;42.590;23.364;2022-08-21T08:01:24;24.80;;;9.00;;
71806;SDS011;59655;42.590;23.364;2022-08-21T08:03:50;20.85;;;8.18;;
71806;SDS011;59655;42.590;23.364;2022-08-21T08:06:15;19.15;;;7.90;;
71806;SDS011;59655;42.590;23.364;2022-08-21T08:08:41;22.17;;;8.45;;
71806;SDS011;59655;42.590;23.364;2022-08-21T08:11:08;26.15;;;9.13;;
71806;SDS011;59655;42.590;23.364;2022-08-21T08:13:44;20.25;;;8.45;;
71806;SDS011;59655;42.590;23.364;2022-08-21T08:16:11;27.10;;;10.00;;
71806;SDS011;59655;42.590;23.364;2022-08-21T08:18:37;25.02;;;9.27;;
71806;SDS011;59655;42.590;23.364;2022-08-21T08:21:03;27.02;;;9.77;;
71806;SDS011;59655;42.590;23.364;2022-08-21T08:23:29;27.25;;;10.60;;
71806;SDS011;59655;42.590;23.364;2022-08-21T08:25:56;29.40;;;10.15;;
71806;SDS011;59655;42.590;23.364;2022-08-21T08:28:22;25.85;;;11.55;;
71806;SDS011;59655;42.590;23.364;2022-08-21T08:30:47;28.80;;;11.80;;
71806;SDS011;59655;42.590;23.364;2022-08-21T08:33:12;27.05;;;11.60;;
71806;SDS011;59655;42.590;23.364;2022-08-21T08:35:38;34.53;;;11.45;;
71806;SDS011;59655;42.590;23.364;2022-08-21T08:38:05;32.03;;;12.68;;
71806;SDS011;59655;42.590;23.364;2022-08-21T08:40:52;29.48;;;11.38;;
71806;SDS011;59655;42.590;23.364;2022-08-21T08:43:19;32.92;;;12.40;;
71806;SDS011;59655;42.590;23.364;2022-08-21T08:45:46;27.60;;;12.32;;
71806;SDS011;59655;42.590;23.364;2022-08-21T08:48:18;27.23;;;12.02;;
71806;SDS011;59655;42.590;23.364;2022-08-21T08:51:16;26.40;;;11.98;;
71806;SDS011;59655;42.590;23.364;2022-08-21T08:54:00;24.05;;;10.27;;
71806;SDS011;59655;42.590;23.364;2022-08-21T08:56:30;25.48;;;11.43;;
71806;SDS011;59655;42.590;23.364;2022-08-21T08:59:00;25.55;;;9.98;;
71806;SDS011;59655;42.590;23.364;2022-08-21T09:01:32;32.25;;;10.75;;
71806;SDS011;59655;42.590;23.364;2022-08-21T09:03:58;22.83;;;10.23;;
71806;SDS011;59655;42.590;23.364;2022-08-21T09:21:56;25.75;;;9.15;;
71806;SDS011;59655;42.590;23.364;2022-08-21T09:27:08;22.55;;;9.38;;
71806;SDS011;59655;42.590;23.364;2022-08-21T09:29:42;23.10;;;8.82;;
71806;SDS011;59655;42.590;23.364;2022-08-21T09:32:31;26.02;;;9.35;;
71806;SDS011;59655;42.590;23.364;2022-08-21T09:37:27;23.15;;;8.80;;
71806;SDS011;59655;42.590;23.364;2022-08-21T09:39:54;22.00;;;9.05;;
71806;SDS011;59655;42.590;23.364;2022-08-21T09:42:24;18.33;;;8.07;;
71806;SDS011;59655;42.590;23.364;2022-08-21T09:45:04;15.77;;;8.23;;
71806;SDS011;59655;42.590;23.364;2022-08-21T09:47:36;21.50;;;9.18;;
71806;SDS011;59655;42.590;23.364;2022-08-21T09:50:09;24.25;;;10.32;;
71806;SDS011;59655;42.590;23.364;2022-08-21T09:52:42;24.45;;;9.80;;
71806;SDS011;59655;42.590;23.364;2022-08-21T09:55:21;25.40;;;9.40;;
71806;SDS011;59655;42.590;23.364;2022-08-21T09:58:13;22.27;;;9.60;;
71806;SDS011;59655;42.590;23.364;2022-08-21T10:00:39;20.33;;;9.40;;
71806;SDS011;59655;42.590;23.364;2022-08-21T10:03:19;20.17;;;8.80;;
71806;SDS011;59655;42.590;23.364;2022-08-21T10:09:02;22.02;;;9.43;;
71806;SDS011;59655;42.590;23.364;2022-08-21T10:11:32;23.83;;;10.27;;
71806;SDS011;59655;42.590;23.364;2022-08-21T10:19:29;22.75;;;10.60;;
71806;SDS011;59655;42.590;23.364;2022-08-21T10:22:15;22.67;;;9.95;;
71806;SDS011;59655;42.590;23.364;2022-08-21T10:24:52;22.85;;;9.68;;
71806;SDS011;59655;42.590;23.364;2022-08-21T10:27:29;22.20;;;10.25;;
71806;SDS011;59655;42.590;23.364;2022-08-21T10:30:02;19.48;;;8.77;;
71806;SDS011;59655;42.590;23.364;2022-08-21T10:32:38;21.17;;;8.77;;
71806;SDS011;59655;42.590;23.364;2022-08-21T10:40:40;18.67;;;8.27;;
71806;SDS011;59655;42.590;23.364;2022-08-21T10:46:02;20.88;;;8.60;;
71806;SDS011;59655;42.590;23.364;2022-08-21T10:48:38;22.13;;;8.55;;
71806;SDS011;59655;42.590;23.364;2022-08-21T10:51:40;20.23;;;8.95;;
71806;SDS011;59655;42.590;23.364;2022-08-21T10:54:19;22.67;;;8.50;;
71806;SDS011;59655;42.590;23.364;2022-08-21T10:56:59;20.08;;;8.95;;
71806;SDS011;59655;42.590;23.364;2022-08-21T10:59:47;22.92;;;9.70;;
71806;SDS011;59655;42.590;23.364;2022-08-21T11:02:38;23.73;;;8.70;;
71806;SDS011;59655;42.590;23.364;2022-08-21T11:07:50;21.05;;;8.50;;
71806;SDS011;59655;42.590;23.364;2022-08-21T11:10:22;17.65;;;7.97;;
71806;SDS011;59655;42.590;23.364;2022-08-21T11:12:58;16.90;;;8.35;;
71806;SDS011;59655;42.590;23.364;2022-08-21T11:15:39;22.00;;;8.68;;
71806;SDS011;59655;42.590;23.364;2022-08-21T11:21:06;16.33;;;8.15;;
71806;SDS011;59655;42.590;23.364;2022-08-21T11:24:03;21.40;;;8.02;;
71806;SDS011;59655;42.590;23.364;2022-08-21T11:26:49;18.63;;;8.07;;
71806;SDS011;59655;42.590;23.364;2022-08-21T11:29:24;17.85;;;8.35;;
71806;SDS011;59655;42.590;23.364;2022-08-21T11:43:16;20.02;;;7.85;;
71806;SDS011;59655;42.590;23.364;2022-08-21T11:46:10;18.35;;;8.25;;
71806;SDS011;59655;42.590;23.364;2022-08-21T11:51:04;22.47;;;8.77;;
71806;SDS011;59655;42.590;23.364;2022-08-21T11:56:27;20.27;;;8.85;;
71806;SDS011;59655;42.590;23.364;2022-08-21T11:59:02;20.23;;;8.38;;
71806;SDS011;59655;42.590;23.364;2022-08-21T12:01:36;17.95;;;9.05;;
71806;SDS011;59655;42.590;23.364;2022-08-21T12:09:37;24.73;;;9.27;;
71806;SDS011;59655;42.590;23.364;2022-08-21T12:12:05;17.83;;;8.98;;
71806;SDS011;59655;42.590;23.364;2022-08-21T12:14:37;15.98;;;8.02;;
71806;SDS011;59655;42.590;23.364;2022-08-21T12:17:06;19.90;;;9.15;;
71806;SDS011;59655;42.590;23.364;2022-08-21T12:24:38;19.80;;;8.63;;
71806;SDS011;59655;42.590;23.364;2022-08-21T12:27:23;17.40;;;9.38;;
71806;SDS011;59655;42.590;23.364;2022-08-21T12:30:05;17.50;;;8.05;;
71806;SDS011;59655;42.590;23.364;2022-08-21T12:32:44;19.80;;;8.50;;
71806;SDS011;59655;42.590;23.364;2022-08-21T12:35:21;20.58;;;8.43;;
71806;SDS011;59655;42.590;23.364;2022-08-21T12:37:51;18.20;;;8.52;;
71806;SDS011;59655;42.590;23.364;2022-08-21T12:40:31;20.80;;;8.70;;
71806;SDS011;59655;42.590;23.364;2022-08-21T12:43:24;22.45;;;8.38;;
71806;SDS011;59655;42.590;23.364;2022-08-21T12:45:55;17.48;;;8.23;;
71806;SDS011;59655;42.590;23.364;2022-08-21T12:51:25;26.02;;;10.07;;
71806;SDS011;59655;42.590;23.364;2022-08-21T12:53:56;18.65;;;8.90;;
71806;SDS011;59655;42.590;23.364;2022-08-21T12:56:25;25.50;;;10.50;;
71806;SDS011;59655;42.590;23.364;2022-08-21T12:58:57;25.85;;;11.63;;
71806;SDS011;59655;42.590;23.364;2022-08-21T13:01:35;26.75;;;10.80;;
71806;SDS011;59655;42.590;23.364;2022-08-21T13:04:13;20.98;;;10.30;;
71806;SDS011;59655;42.590;23.364;2022-08-21T13:06:50;24.63;;;10.05;;
71806;SDS011;59655;42.590;23.364;2022-08-21T13:09:18;23.35;;;11.18;;
71806;SDS011;59655;42.590;23.364;2022-08-21T13:11:49;23.60;;;11.40;;
71806;SDS011;59655;42.590;23.364;2022-08-21T13:14:32;19.10;;;9.70;;
71806;SDS011;59655;42.590;23.364;2022-08-21T13:17:03;18.98;;;9.20;;
71806;SDS011;59655;42.590;23.364;2022-08-21T13:19:30;22.92;;;9.00;;
71806;SDS011;59655;42.590;23.364;2022-08-21T13:21:56;22.92;;;9.13;;
71806;SDS011;59655;42.590;23.364;2022-08-21T13:24:46;30.30;;;11.52;;
71806;SDS011;59655;42.590;23.364;2022-08-21T13:27:17;22.35;;;10.57;;
71806;SDS011;59655;42.590;23.364;2022-08-21T13:29:44;18.80;;;9.13;;
71806;SDS011;59655;42.590;23.364;2022-08-21T13:32:13;19.20;;;9.90;;
71806;SDS011;59655;42.590;23.364;2022-08-21T13:34:46;18.88;;;9.18;;
71806;SDS011;59655;42.590;23.364;2022-08-21T13:37:12;18.50;;;9.48;;
71806;SDS011;59655;42.590;23.364;2022-08-21T13:39:39;21.42;;;9.27;;
71806;SDS011;59655;42.590;23.364;2022-08-21T13:42:08;18.67;;;9.50;;
71806;SDS011;59655;42.590;23.364;2022-08-21T13:44:39;20.95;;;9.90;;
71806;SDS011;59655;42.590;23.364;2022-08-21T13:47:07;21.10;;;9.10;;
71806;SDS011;59655;42.590;23.364;2022-08-21T13:49:36;19.58;;;9.40;;
71806;SDS011;59655;42.590;23.364;2022-08-21T13:52:19;15.02;;;8.90;;
71806;SDS011;59655;42.590;23.364;2022-08-21T13:57:26;23.55;;;9.23;;
71806;SDS011;59655;42.590;23.364;2022-08-21T14:00:08;20.30;;;9.75;;
71806;SDS011;59655;42.590;23.364;2022-08-21T14:02:46;21.35;;;8.70;;
71806;SDS011;59655;42.590;23.364;2022-08-21T14:05:21;17.67;;;9.13;;
71806;SDS011;59655;42.590;23.364;2022-08-21T14:08:03;17.33;;;8.93;;
71806;SDS011;59655;42.590;23.364;2022-08-21T14:10:34;19.67;;;9.25;;
71806;SDS011;59655;42.590;23.364;2022-08-21T14:13:02;29.08;;;8.85;;
71806;SDS011;59655;42.590;23.364;2022-08-21T14:15:31;19.73;;;8.50;;
71806;SDS011;59655;42.590;23.364;2022-08-21T14:18:15;23.27;;;8.95;;
71806;SDS011;59655;42.590;23.364;2022-08-21T14:20:42;25.42;;;9.32;;
71806;SDS011;59655;42.590;23.364;2022-08-21T14:23:08;20.23;;;9.10;;
71806;SDS011;59655;42.590;23.364;2022-08-21T14:25:41;22.83;;;8.50;;
71806;SDS011;59655;42.590;23.364;2022-08-21T14:30:43;19.73;;;8.27;;
71806;SDS011;59655;42.590;23.364;2022-08-21T14:33:13;16.95;;;8.23;;
71806;SDS011;59655;42.590;23.364;2022-08-21T14:35:45;21.67;;;8.98;;
71806;SDS011;59655;42.590;23.364;2022-08-21T14:38:14;16.70;;;8.23;;
71806;SDS011;59655;42.590;23.364;2022-08-21T14:40:41;16.17;;;8.32;;
71806;SDS011;59655;42.590;23.364;2022-08-21T14:43:08;14.98;;;8.13;;
71806;SDS011;59655;42.590;23.364;2022-08-21T14:45:33;16.75;;;8.00;;
71806;SDS011;59655;42.590;23.364;2022-08-21T14:47:59;19.35;;;8.05;;
71806;SDS011;59655;42.590;23.364;2022-08-21T14:50:25;16.85;;;6.90;;
71806;SDS011;59655;42.590;23.364;2022-08-21T14:52:50;19.00;;;7.43;;
71806;SDS011;59655;42.590;23.364;2022-08-21T14:55:16;14.20;;;7.03;;
71806;SDS011;59655;42.590;23.364;2022-08-21T14:57:46;19.98;;;7.35;;
71806;SDS011;59655;42.590;23.364;2022-08-21T15:00:15;17.08;;;8.05;;
71806;SDS011;59655;42.590;23.364;2022-08-21T15:02:44;20.15;;;8.20;;
71806;SDS011;59655;42.590;23.364;2022-08-21T15:05:10;20.48;;;8.32;;
71806;SDS011;59655;42.590;23.364;2022-08-21T15:07:35;19.98;;;8.50;;
71806;SDS011;59655;42.590;23.364;2022-08-21T15:10:01;18.70;;;8.18;;
71806;SDS011;59655;42.590;23.364;2022-08-21T15:12:26;21.02;;;9.35;;
71806;SDS011;59655;42.590;23.364;2022-08-21T15:14:52;23.27;;;8.48;;
71806;SDS011;59655;42.590;23.364;2022-08-21T15:17:17;20.13;;;8.80;;
71806;SDS011;59655;42.590;23.364;2022-08-21T15:19:43;19.75;;;8.68;;
71806;SDS011;59655;42.590;23.364;2022-08-21T15:22:09;23.20;;;9.02;;
71806;SDS011;59655;42.590;23.364;2022-08-21T15:24:34;24.80;;;9.77;;
71806;SDS011;59655;42.590;23.364;2022-08-21T15:27:01;20.05;;;9.05;;
71806;SDS011;59655;42.590;23.364;2022-08-21T15:29:28;19.50;;;8.90;;
71806;SDS011;59655;42.590;23.364;2022-08-21T15:31:56;18.92;;;8.32;;
71806;SDS011;59655;42.590;23.364;2022-08-21T15:34:23;20.20;;;9.10;;
71806;SDS011;59655;42.590;23.364;2022-08-21T15:36:50;23.73;;;9.23;;
71806;SDS011;59655;42.590;23.364;2022-08-21T15:39:16;17.35;;;8.65;;
71806;SDS011;59655;42.590;23.364;2022-08-21T15:41:42;21.33;;;8.30;;
71806;SDS011;59655;42.590;23.364;2022-08-21T15:44:08;19.67;;;8.68;;
71806;SDS011;59655;42.590;23.364;2022-08-21T15:46:37;19.40;;;8.82;;
71806;SDS011;59655;42.590;23.364;2022-08-21T15:49:04;22.08;;;8.82;;
71806;SDS011;59655;42.590;23.364;2022-08-21T15:51:29;16.05;;;8.25;;
71806;SDS011;59655;42.590;23.364;2022-08-21T15:53:55;18.50;;;8.65;;
71806;SDS011;59655;42.590;23.364;2022-08-21T15:56:22;14.93;;;9.40;;
71806;SDS011;59655;42.590;23.364;2022-08-21T15:58:50;21.52;;;9.43;;
71806;SDS011;59655;42.590;23.364;2022-08-21T16:01:17;19.92;;;8.93;;